sensor_id;sensor_type;location;lat;lon;timestamp;temperature;humidity
46730;DHT22;32476;50.002;11.854;2022-08-19T00:01:50;17.20;99.90
46730;DHT22;32476;50.002;11.854;2022-08-19T00:04:22;17.20;99.90
46730;DHT22;32476;50.002;11.854;2022-08-19T00:06:50;17.20;99.90
46730;DHT22;32476;50.002;11.854;2022-08-19T00:09:18;17.20;99.90
46730;DHT22;32476;50.002;11.854;2022-08-19T00:11:46;17.20;99.90
46730;DHT22;32476;50.002;11.854;2022-08-19T00:14:15;17.20;99.90
46730;DHT22;32476;50.002;11.854;2022-08-19T00:16:44;17.20;99.90
46730;DHT22;32476;50.002;11.854;2022-08-19T00:19:15;17.10;99.90
46730;DHT22;32476;50.002;11.854;2022-08-19T00:21:41;17.20;99.90
46730;DHT22;32476;50.002;11.854;2022-08-19T00:24:09;17.20;99.90
46730;DHT22;32476;50.002;11.854;2022-08-19T00:26:39;17.20;99.90
46730;DHT22;32476;50.002;11.854;2022-08-19T00:29:12;17.10;99.90
46730;DHT22;32476;50.002;11.854;2022-08-19T00:31:41;17.10;99.90
46730;DHT22;32476;50.002;11.854;2022-08-19T00:34:09;17.10;99.90
46730;DHT22;32476;50.002;11.854;2022-08-19T00:36:35;17.00;99.90
46730;DHT22;32476;50.002;11.854;2022-08-19T00:39:04;17.10;99.90
46730;DHT22;32476;50.002;11.854;2022-08-19T00:41:30;17.00;99.90
46730;DHT22;32476;50.002;11.854;2022-08-19T00:46:38;17.00;99.90
46730;DHT22;32476;50.002;11.854;2022-08-19T00:49:14;17.00;99.90
46730;DHT22;32476;50.002;11.854;2022-08-19T00:51:50;16.90;99.90
46730;DHT22;32476;50.002;11.854;2022-08-19T00:54:19;16.90;99.90
46730;DHT22;32476;50.002;11.854;2022-08-19T00:56:47;16.90;99.90
46730;DHT22;32476;50.002;11.854;2022-08-19T00:59:15;16.90;99.90
46730;DHT22;32476;50.002;11.854;2022-08-19T01:01:43;16.90;99.90
46730;DHT22;32476;50.002;11.854;2022-08-19T01:04:11;16.90;99.90
46730;DHT22;32476;50.002;11.854;2022-08-19T01:06:39;16.90;99.90
46730;DHT22;32476;50.002;11.854;2022-08-19T01:09:07;16.90;99.90
46730;DHT22;32476;50.002;11.854;2022-08-19T01:11:39;17.00;99.90
46730;DHT22;32476;50.002;11.854;2022-08-19T01:14:07;16.90;99.90
46730;DHT22;32476;50.002;11.854;2022-08-19T01:16:37;17.00;99.90
46730;DHT22;32476;50.002;11.854;2022-08-19T01:19:10;17.00;99.90
46730;DHT22;32476;50.002;11.854;2022-08-19T01:21:52;17.00;99.90
46730;DHT22;32476;50.002;11.854;2022-08-19T01:24:21;17.00;99.90
46730;DHT22;32476;50.002;11.854;2022-08-19T01:26:49;17.00;99.90
46730;DHT22;32476;50.002;11.854;2022-08-19T01:29:15;17.10;99.90
46730;DHT22;32476;50.002;11.854;2022-08-19T01:31:41;17.10;99.90
46730;DHT22;32476;50.002;11.854;2022-08-19T01:34:10;17.10;99.90
46730;DHT22;32476;50.002;11.854;2022-08-19T01:36:43;17.10;99.90
46730;DHT22;32476;50.002;11.854;2022-08-19T01:39:18;17.00;99.90
46730;DHT22;32476;50.002;11.854;2022-08-19T01:41:46;17.10;99.90
46730;DHT22;32476;50.002;11.854;2022-08-19T01:44:15;17.00;99.90
46730;DHT22;32476;50.002;11.854;2022-08-19T01:46:43;17.00;99.90
46730;DHT22;32476;50.002;11.854;2022-08-19T01:49:10;17.00;99.90
46730;DHT22;32476;50.002;11.854;2022-08-19T01:51:38;17.00;99.90
46730;DHT22;32476;50.002;11.854;2022-08-19T01:54:04;17.00;99.90
46730;DHT22;32476;50.002;11.854;2022-08-19T01:56:30;17.00;99.90
46730;DHT22;32476;50.002;11.854;2022-08-19T01:59:01;17.00;99.90
46730;DHT22;32476;50.002;11.854;2022-08-19T02:01:28;17.00;99.90
46730;DHT22;32476;50.002;11.854;2022-08-19T02:03:59;17.00;99.90
46730;DHT22;32476;50.002;11.854;2022-08-19T02:06:26;17.00;99.90
46730;DHT22;32476;50.002;11.854;2022-08-19T02:08:54;17.10;99.90
46730;DHT22;32476;50.002;11.854;2022-08-19T02:11:30;17.00;99.90
46730;DHT22;32476;50.002;11.854;2022-08-19T02:14:01;17.10;99.90
46730;DHT22;32476;50.002;11.854;2022-08-19T02:16:30;17.10;99.90
46730;DHT22;32476;50.002;11.854;2022-08-19T02:18:56;17.00;99.90
46730;DHT22;32476;50.002;11.854;2022-08-19T02:21:23;17.10;99.90
46730;DHT22;32476;50.002;11.854;2022-08-19T02:23:50;17.00;99.90
46730;DHT22;32476;50.002;11.854;2022-08-19T02:26:17;17.10;99.90
46730;DHT22;32476;50.002;11.854;2022-08-19T02:28:44;17.10;99.90
46730;DHT22;32476;50.002;11.854;2022-08-19T02:31:14;17.10;99.90
46730;DHT22;32476;50.002;11.854;2022-08-19T02:33:41;17.10;99.90
46730;DHT22;32476;50.002;11.854;2022-08-19T02:36:09;17.10;99.90
46730;DHT22;32476;50.002;11.854;2022-08-19T02:38:37;17.10;99.90
46730;DHT22;32476;50.002;11.854;2022-08-19T02:41:13;17.10;99.90
46730;DHT22;32476;50.002;11.854;2022-08-19T02:43:43;17.10;99.90
46730;DHT22;32476;50.002;11.854;2022-08-19T02:46:25;17.10;99.90
46730;DHT22;32476;50.002;11.854;2022-08-19T02:48:58;17.10;99.90
46730;DHT22;32476;50.002;11.854;2022-08-19T02:51:29;17.10;99.90
46730;DHT22;32476;50.002;11.854;2022-08-19T02:53:58;17.10;99.90
46730;DHT22;32476;50.002;11.854;2022-08-19T02:56:25;17.20;99.90
46730;DHT22;32476;50.002;11.854;2022-08-19T02:58:54;17.10;99.90
46730;DHT22;32476;50.002;11.854;2022-08-19T03:01:25;17.10;99.90
46730;DHT22;32476;50.002;11.854;2022-08-19T03:03:57;17.10;99.90
46730;DHT22;32476;50.002;11.854;2022-08-19T03:06:27;17.00;99.90
46730;DHT22;32476;50.002;11.854;2022-08-19T03:08:54;17.00;99.90
46730;DHT22;32476;50.002;11.854;2022-08-19T03:11:24;17.10;99.90
46730;DHT22;32476;50.002;11.854;2022-08-19T03:13:54;17.10;99.90
46730;DHT22;32476;50.002;11.854;2022-08-19T03:16:23;17.10;99.90
46730;DHT22;32476;50.002;11.854;2022-08-19T03:18:52;17.00;99.90
46730;DHT22;32476;50.002;11.854;2022-08-19T03:21:23;17.10;99.90
46730;DHT22;32476;50.002;11.854;2022-08-19T03:23:53;17.10;99.90
46730;DHT22;32476;50.002;11.854;2022-08-19T03:26:21;17.10;99.90
46730;DHT22;32476;50.002;11.854;2022-08-19T03:28:47;17.00;99.90
46730;DHT22;32476;50.002;11.854;2022-08-19T03:31:18;17.00;99.90
46730;DHT22;32476;50.002;11.854;2022-08-19T03:33:49;17.10;99.90
46730;DHT22;32476;50.002;11.854;2022-08-19T03:36:21;17.10;99.90
46730;DHT22;32476;50.002;11.854;2022-08-19T03:38:55;17.10;99.90
46730;DHT22;32476;50.002;11.854;2022-08-19T03:41:28;17.00;99.90
46730;DHT22;32476;50.002;11.854;2022-08-19T03:44:00;16.90;99.90
46730;DHT22;32476;50.002;11.854;2022-08-19T03:46:28;17.00;99.90
46730;DHT22;32476;50.002;11.854;2022-08-19T03:48:57;16.90;99.90
46730;DHT22;32476;50.002;11.854;2022-08-19T03:51:29;17.00;99.90
46730;DHT22;32476;50.002;11.854;2022-08-19T03:54:00;16.90;99.90
46730;DHT22;32476;50.002;11.854;2022-08-19T03:56:28;16.80;99.90
46730;DHT22;32476;50.002;11.854;2022-08-19T03:58:56;16.80;99.90
46730;DHT22;32476;50.002;11.854;2022-08-19T04:01:24;16.70;99.90
46730;DHT22;32476;50.002;11.854;2022-08-19T04:03:54;16.70;99.90
46730;DHT22;32476;50.002;11.854;2022-08-19T04:06:24;16.70;99.90
46730;DHT22;32476;50.002;11.854;2022-08-19T04:08:55;16.60;99.90
46730;DHT22;32476;50.002;11.854;2022-08-19T04:11:25;16.70;99.90
46730;DHT22;32476;50.002;11.854;2022-08-19T04:13:54;16.70;99.90
46730;DHT22;32476;50.002;11.854;2022-08-19T04:16:24;16.70;99.90
46730;DHT22;32476;50.002;11.854;2022-08-19T04:18:50;16.70;99.90
46730;DHT22;32476;50.002;11.854;2022-08-19T04:21:20;16.70;99.90
46730;DHT22;32476;50.002;11.854;2022-08-19T04:23:48;16.70;99.90
46730;DHT22;32476;50.002;11.854;2022-08-19T04:26:16;16.80;99.90
46730;DHT22;32476;50.002;11.854;2022-08-19T04:28:46;16.70;99.90
46730;DHT22;32476;50.002;11.854;2022-08-19T04:31:15;16.70;99.90
46730;DHT22;32476;50.002;11.854;2022-08-19T04:33:43;16.70;99.90
46730;DHT22;32476;50.002;11.854;2022-08-19T04:36:37;16.70;99.90
46730;DHT22;32476;50.002;11.854;2022-08-19T04:39:07;16.80;99.90
46730;DHT22;32476;50.002;11.854;2022-08-19T04:41:38;16.80;99.90
46730;DHT22;32476;50.002;11.854;2022-08-19T04:44:23;16.80;99.90
46730;DHT22;32476;50.002;11.854;2022-08-19T04:46:50;16.90;99.90
46730;DHT22;32476;50.002;11.854;2022-08-19T04:49:18;16.90;99.90
46730;DHT22;32476;50.002;11.854;2022-08-19T04:51:47;17.00;99.90
46730;DHT22;32476;50.002;11.854;2022-08-19T04:54:17;17.00;99.90
46730;DHT22;32476;50.002;11.854;2022-08-19T04:56:43;17.00;99.90
46730;DHT22;32476;50.002;11.854;2022-08-19T04:59:09;17.00;99.90
46730;DHT22;32476;50.002;11.854;2022-08-19T05:01:37;17.00;99.90
46730;DHT22;32476;50.002;11.854;2022-08-19T05:04:06;17.10;99.90
46730;DHT22;32476;50.002;11.854;2022-08-19T05:06:32;17.10;99.90
46730;DHT22;32476;50.002;11.854;2022-08-19T05:09:02;17.10;99.90
46730;DHT22;32476;50.002;11.854;2022-08-19T05:11:33;17.10;99.90
46730;DHT22;32476;50.002;11.854;2022-08-19T05:14:07;17.20;99.90
46730;DHT22;32476;50.002;11.854;2022-08-19T05:16:33;17.20;99.90
46730;DHT22;32476;50.002;11.854;2022-08-19T05:18:59;17.30;99.90
46730;DHT22;32476;50.002;11.854;2022-08-19T05:21:46;17.20;99.90
46730;DHT22;32476;50.002;11.854;2022-08-19T05:24:31;17.20;99.90
46730;DHT22;32476;50.002;11.854;2022-08-19T05:27:01;17.20;99.90
46730;DHT22;32476;50.002;11.854;2022-08-19T05:29:29;17.20;99.90
46730;DHT22;32476;50.002;11.854;2022-08-19T05:31:58;17.20;99.90
46730;DHT22;32476;50.002;11.854;2022-08-19T05:34:26;17.20;99.90
46730;DHT22;32476;50.002;11.854;2022-08-19T05:36:59;17.20;99.90
46730;DHT22;32476;50.002;11.854;2022-08-19T05:39:30;17.20;99.90
46730;DHT22;32476;50.002;11.854;2022-08-19T05:42:04;17.20;99.90
46730;DHT22;32476;50.002;11.854;2022-08-19T05:44:36;17.20;99.90
46730;DHT22;32476;50.002;11.854;2022-08-19T05:47:06;17.20;99.90
46730;DHT22;32476;50.002;11.854;2022-08-19T05:49:36;17.20;99.90
46730;DHT22;32476;50.002;11.854;2022-08-19T05:52:05;17.30;99.90
46730;DHT22;32476;50.002;11.854;2022-08-19T05:54:37;17.30;99.90
46730;DHT22;32476;50.002;11.854;2022-08-19T05:57:06;17.30;99.90
46730;DHT22;32476;50.002;11.854;2022-08-19T05:59:32;17.30;99.90
46730;DHT22;32476;50.002;11.854;2022-08-19T06:02:02;17.20;99.90
46730;DHT22;32476;50.002;11.854;2022-08-19T06:04:29;17.30;99.90
46730;DHT22;32476;50.002;11.854;2022-08-19T06:06:55;17.30;99.90
46730;DHT22;32476;50.002;11.854;2022-08-19T06:09:23;17.30;99.90
46730;DHT22;32476;50.002;11.854;2022-08-19T06:11:52;17.40;99.90
46730;DHT22;32476;50.002;11.854;2022-08-19T06:14:23;17.40;99.90
46730;DHT22;32476;50.002;11.854;2022-08-19T06:16:52;17.40;99.90
46730;DHT22;32476;50.002;11.854;2022-08-19T06:19:20;17.40;99.90
46730;DHT22;32476;50.002;11.854;2022-08-19T06:21:48;17.50;99.90
46730;DHT22;32476;50.002;11.854;2022-08-19T06:24:23;17.50;99.90
46730;DHT22;32476;50.002;11.854;2022-08-19T06:26:52;17.60;99.90
46730;DHT22;32476;50.002;11.854;2022-08-19T06:29:24;17.60;99.90
46730;DHT22;32476;50.002;11.854;2022-08-19T06:31:53;17.60;99.90
46730;DHT22;32476;50.002;11.854;2022-08-19T06:34:24;17.50;99.90
46730;DHT22;32476;50.002;11.854;2022-08-19T06:36:52;17.60;99.90
46730;DHT22;32476;50.002;11.854;2022-08-19T06:39:24;17.70;99.90
46730;DHT22;32476;50.002;11.854;2022-08-19T06:41:55;17.70;99.90
46730;DHT22;32476;50.002;11.854;2022-08-19T06:44:26;17.80;99.90
46730;DHT22;32476;50.002;11.854;2022-08-19T06:46:55;17.90;99.90
46730;DHT22;32476;50.002;11.854;2022-08-19T06:49:22;18.00;99.90
46730;DHT22;32476;50.002;11.854;2022-08-19T06:51:49;18.10;99.90
46730;DHT22;32476;50.002;11.854;2022-08-19T06:54:18;18.10;99.90
46730;DHT22;32476;50.002;11.854;2022-08-19T06:56:45;18.00;99.90
46730;DHT22;32476;50.002;11.854;2022-08-19T06:59:13;18.10;99.90
46730;DHT22;32476;50.002;11.854;2022-08-19T07:01:49;18.10;99.90
46730;DHT22;32476;50.002;11.854;2022-08-19T07:04:25;18.10;99.90
46730;DHT22;32476;50.002;11.854;2022-08-19T07:07:00;18.10;99.90
46730;DHT22;32476;50.002;11.854;2022-08-19T07:09:33;18.10;99.90
46730;DHT22;32476;50.002;11.854;2022-08-19T07:12:05;18.20;99.90
46730;DHT22;32476;50.002;11.854;2022-08-19T07:14:33;18.30;99.90
46730;DHT22;32476;50.002;11.854;2022-08-19T07:17:08;18.30;99.90
46730;DHT22;32476;50.002;11.854;2022-08-19T07:19:36;18.40;99.90
46730;DHT22;32476;50.002;11.854;2022-08-19T07:22:07;18.50;99.90
46730;DHT22;32476;50.002;11.854;2022-08-19T07:24:34;18.50;99.90
46730;DHT22;32476;50.002;11.854;2022-08-19T07:27:02;18.60;99.90
46730;DHT22;32476;50.002;11.854;2022-08-19T07:29:33;18.80;99.90
46730;DHT22;32476;50.002;11.854;2022-08-19T07:32:01;18.80;99.90
46730;DHT22;32476;50.002;11.854;2022-08-19T07:34:29;18.90;99.90
46730;DHT22;32476;50.002;11.854;2022-08-19T07:36:57;19.10;99.90
46730;DHT22;32476;50.002;11.854;2022-08-19T07:39:27;19.10;99.90
46730;DHT22;32476;50.002;11.854;2022-08-19T07:41:56;19.00;99.90
46730;DHT22;32476;50.002;11.854;2022-08-19T07:44:25;19.10;99.90
46730;DHT22;32476;50.002;11.854;2022-08-19T07:46:54;19.00;99.90
46730;DHT22;32476;50.002;11.854;2022-08-19T07:49:22;19.00;99.90
46730;DHT22;32476;50.002;11.854;2022-08-19T07:51:56;19.00;99.90
46730;DHT22;32476;50.002;11.854;2022-08-19T07:54:25;19.10;99.90
46730;DHT22;32476;50.002;11.854;2022-08-19T07:56:54;19.10;99.90
46730;DHT22;32476;50.002;11.854;2022-08-19T07:59:21;19.20;99.90
46730;DHT22;32476;50.002;11.854;2022-08-19T08:01:49;19.20;99.90
46730;DHT22;32476;50.002;11.854;2022-08-19T08:04:18;19.30;99.90
46730;DHT22;32476;50.002;11.854;2022-08-19T08:07:04;19.10;99.90
46730;DHT22;32476;50.002;11.854;2022-08-19T08:09:51;19.10;99.90
46730;DHT22;32476;50.002;11.854;2022-08-19T08:12:21;19.30;99.90
46730;DHT22;32476;50.002;11.854;2022-08-19T08:14:55;19.30;99.90
46730;DHT22;32476;50.002;11.854;2022-08-19T08:17:26;19.30;99.90
46730;DHT22;32476;50.002;11.854;2022-08-19T08:19:54;19.30;99.90
46730;DHT22;32476;50.002;11.854;2022-08-19T08:22:21;19.30;99.90
46730;DHT22;32476;50.002;11.854;2022-08-19T08:25:14;19.20;99.90
46730;DHT22;32476;50.002;11.854;2022-08-19T08:27:45;19.00;99.90
46730;DHT22;32476;50.002;11.854;2022-08-19T08:30:16;18.80;99.90
46730;DHT22;32476;50.002;11.854;2022-08-19T08:32:45;18.90;99.90
46730;DHT22;32476;50.002;11.854;2022-08-19T08:35:13;18.80;99.90
46730;DHT22;32476;50.002;11.854;2022-08-19T08:37:45;18.90;99.90
46730;DHT22;32476;50.002;11.854;2022-08-19T08:40:28;19.20;99.90
46730;DHT22;32476;50.002;11.854;2022-08-19T08:43:36;19.40;99.90
46730;DHT22;32476;50.002;11.854;2022-08-19T08:46:07;19.40;99.90
46730;DHT22;32476;50.002;11.854;2022-08-19T08:48:51;19.30;99.90
46730;DHT22;32476;50.002;11.854;2022-08-19T08:51:24;19.30;99.90
46730;DHT22;32476;50.002;11.854;2022-08-19T08:54:00;19.20;99.90
46730;DHT22;32476;50.002;11.854;2022-08-19T08:56:27;19.30;99.90
46730;DHT22;32476;50.002;11.854;2022-08-19T09:01:25;19.30;99.90
46730;DHT22;32476;50.002;11.854;2022-08-19T09:03:52;19.30;99.90
46730;DHT22;32476;50.002;11.854;2022-08-19T09:09:50;19.00;99.90
46730;DHT22;32476;50.002;11.854;2022-08-19T09:12:37;19.00;99.90
46730;DHT22;32476;50.002;11.854;2022-08-19T09:15:13;18.80;99.90
46730;DHT22;32476;50.002;11.854;2022-08-19T09:17:40;18.70;99.90
46730;DHT22;32476;50.002;11.854;2022-08-19T09:22:42;18.80;99.90
46730;DHT22;32476;50.002;11.854;2022-08-19T09:25:16;18.80;99.90
46730;DHT22;32476;50.002;11.854;2022-08-19T09:27:43;18.70;99.90
46730;DHT22;32476;50.002;11.854;2022-08-19T09:30:21;18.60;99.90
46730;DHT22;32476;50.002;11.854;2022-08-19T09:32:53;18.60;99.90
46730;DHT22;32476;50.002;11.854;2022-08-19T09:35:23;18.50;99.90
46730;DHT22;32476;50.002;11.854;2022-08-19T09:37:53;18.50;99.90
46730;DHT22;32476;50.002;11.854;2022-08-19T09:40:19;18.50;99.90
46730;DHT22;32476;50.002;11.854;2022-08-19T09:42:46;18.70;99.90
46730;DHT22;32476;50.002;11.854;2022-08-19T09:45:16;18.70;99.90
46730;DHT22;32476;50.002;11.854;2022-08-19T09:47:43;18.90;99.90
46730;DHT22;32476;50.002;11.854;2022-08-19T09:50:11;19.00;99.90
46730;DHT22;32476;50.002;11.854;2022-08-19T09:52:40;19.00;99.90
46730;DHT22;32476;50.002;11.854;2022-08-19T09:55:09;19.10;99.90
46730;DHT22;32476;50.002;11.854;2022-08-19T09:57:36;19.20;99.90
46730;DHT22;32476;50.002;11.854;2022-08-19T10:00:06;19.10;99.90
46730;DHT22;32476;50.002;11.854;2022-08-19T10:02:34;19.10;99.90
46730;DHT22;32476;50.002;11.854;2022-08-19T10:05:01;19.00;99.90
46730;DHT22;32476;50.002;11.854;2022-08-19T10:07:47;18.90;99.90
46730;DHT22;32476;50.002;11.854;2022-08-19T10:10:14;18.80;99.90
46730;DHT22;32476;50.002;11.854;2022-08-19T10:12:41;18.80;99.90
46730;DHT22;32476;50.002;11.854;2022-08-19T10:15:08;19.00;99.90
46730;DHT22;32476;50.002;11.854;2022-08-19T10:17:35;18.80;99.90
46730;DHT22;32476;50.002;11.854;2022-08-19T10:20:01;18.70;99.90
46730;DHT22;32476;50.002;11.854;2022-08-19T10:22:31;18.80;99.90
46730;DHT22;32476;50.002;11.854;2022-08-19T10:24:57;18.60;99.90
46730;DHT22;32476;50.002;11.854;2022-08-19T10:27:23;18.60;99.90
46730;DHT22;32476;50.002;11.854;2022-08-19T10:29:51;18.60;99.90
46730;DHT22;32476;50.002;11.854;2022-08-19T10:32:17;18.60;99.90
46730;DHT22;32476;50.002;11.854;2022-08-19T10:34:43;18.60;99.90
46730;DHT22;32476;50.002;11.854;2022-08-19T10:37:10;18.60;99.90
46730;DHT22;32476;50.002;11.854;2022-08-19T10:39:37;18.50;99.90
46730;DHT22;32476;50.002;11.854;2022-08-19T10:42:06;18.40;99.90
46730;DHT22;32476;50.002;11.854;2022-08-19T10:44:34;18.40;99.90
46730;DHT22;32476;50.002;11.854;2022-08-19T10:47:02;18.40;99.90
46730;DHT22;32476;50.002;11.854;2022-08-19T10:49:29;18.30;99.90
46730;DHT22;32476;50.002;11.854;2022-08-19T10:51:57;18.30;99.90
46730;DHT22;32476;50.002;11.854;2022-08-19T10:54:42;18.40;99.90
46730;DHT22;32476;50.002;11.854;2022-08-19T10:57:31;18.50;99.90
46730;DHT22;32476;50.002;11.854;2022-08-19T10:59:58;18.50;99.90
46730;DHT22;32476;50.002;11.854;2022-08-19T11:02:24;18.40;99.90
46730;DHT22;32476;50.002;11.854;2022-08-19T11:04:51;18.40;99.90
46730;DHT22;32476;50.002;11.854;2022-08-19T11:07:17;18.40;99.90
46730;DHT22;32476;50.002;11.854;2022-08-19T11:09:43;18.40;99.90
46730;DHT22;32476;50.002;11.854;2022-08-19T11:12:11;18.40;99.90
46730;DHT22;32476;50.002;11.854;2022-08-19T11:14:38;18.40;99.90
46730;DHT22;32476;50.002;11.854;2022-08-19T11:17:05;18.40;99.90
46730;DHT22;32476;50.002;11.854;2022-08-19T11:19:34;18.40;99.90
46730;DHT22;32476;50.002;11.854;2022-08-19T11:22:01;18.40;99.90
46730;DHT22;32476;50.002;11.854;2022-08-19T11:24:27;18.40;99.90
46730;DHT22;32476;50.002;11.854;2022-08-19T11:27:03;18.40;99.90
46730;DHT22;32476;50.002;11.854;2022-08-19T11:29:32;18.50;99.90
46730;DHT22;32476;50.002;11.854;2022-08-19T11:32:08;18.50;99.90
46730;DHT22;32476;50.002;11.854;2022-08-19T11:34:35;18.40;99.90
46730;DHT22;32476;50.002;11.854;2022-08-19T11:37:03;18.40;99.90
46730;DHT22;32476;50.002;11.854;2022-08-19T11:39:33;18.50;99.90
46730;DHT22;32476;50.002;11.854;2022-08-19T11:42:01;18.40;99.90
46730;DHT22;32476;50.002;11.854;2022-08-19T11:44:30;18.40;99.90
46730;DHT22;32476;50.002;11.854;2022-08-19T11:46:56;18.30;99.90
46730;DHT22;32476;50.002;11.854;2022-08-19T11:49:22;18.30;99.90
46730;DHT22;32476;50.002;11.854;2022-08-19T11:51:49;18.30;99.90
46730;DHT22;32476;50.002;11.854;2022-08-19T11:54:17;18.20;99.90
46730;DHT22;32476;50.002;11.854;2022-08-19T11:56:44;18.10;99.90
46730;DHT22;32476;50.002;11.854;2022-08-19T11:59:13;18.10;99.90
46730;DHT22;32476;50.002;11.854;2022-08-19T12:01:39;18.00;99.90
46730;DHT22;32476;50.002;11.854;2022-08-19T12:04:07;18.00;99.90
46730;DHT22;32476;50.002;11.854;2022-08-19T12:06:38;17.80;99.90
46730;DHT22;32476;50.002;11.854;2022-08-19T12:09:07;17.90;99.90
46730;DHT22;32476;50.002;11.854;2022-08-19T12:11:37;17.90;99.90
46730;DHT22;32476;50.002;11.854;2022-08-19T12:14:04;17.90;99.90
46730;DHT22;32476;50.002;11.854;2022-08-19T12:16:32;17.80;99.90
46730;DHT22;32476;50.002;11.854;2022-08-19T12:19:00;17.80;99.90
46730;DHT22;32476;50.002;11.854;2022-08-19T12:21:31;17.80;99.90
46730;DHT22;32476;50.002;11.854;2022-08-19T12:24:01;17.80;99.90
46730;DHT22;32476;50.002;11.854;2022-08-19T12:26:29;17.90;99.90
46730;DHT22;32476;50.002;11.854;2022-08-19T12:28:57;17.80;99.90
46730;DHT22;32476;50.002;11.854;2022-08-19T12:31:27;17.80;99.90
46730;DHT22;32476;50.002;11.854;2022-08-19T12:33:54;17.80;99.90
46730;DHT22;32476;50.002;11.854;2022-08-19T12:36:22;17.80;99.90
46730;DHT22;32476;50.002;11.854;2022-08-19T12:38:50;17.80;99.90
46730;DHT22;32476;50.002;11.854;2022-08-19T12:41:17;17.80;99.90
46730;DHT22;32476;50.002;11.854;2022-08-19T12:43:45;17.90;99.90
46730;DHT22;32476;50.002;11.854;2022-08-19T12:46:12;17.80;99.90
46730;DHT22;32476;50.002;11.854;2022-08-19T12:48:39;17.90;99.90
46730;DHT22;32476;50.002;11.854;2022-08-19T12:51:14;17.80;99.90
46730;DHT22;32476;50.002;11.854;2022-08-19T12:53:45;18.00;99.90
46730;DHT22;32476;50.002;11.854;2022-08-19T12:56:12;18.10;99.90
46730;DHT22;32476;50.002;11.854;2022-08-19T12:58:40;18.10;99.90
46730;DHT22;32476;50.002;11.854;2022-08-19T13:01:11;18.20;99.90
46730;DHT22;32476;50.002;11.854;2022-08-19T13:03:38;18.00;99.90
46730;DHT22;32476;50.002;11.854;2022-08-19T13:06:05;18.00;99.90
46730;DHT22;32476;50.002;11.854;2022-08-19T13:08:32;18.10;99.90
46730;DHT22;32476;50.002;11.854;2022-08-19T13:11:13;18.00;99.90
46730;DHT22;32476;50.002;11.854;2022-08-19T13:13:46;17.90;99.90
46730;DHT22;32476;50.002;11.854;2022-08-19T13:16:13;18.00;99.90
46730;DHT22;32476;50.002;11.854;2022-08-19T13:18:41;18.20;99.90
46730;DHT22;32476;50.002;11.854;2022-08-19T13:21:10;18.30;99.90
46730;DHT22;32476;50.002;11.854;2022-08-19T13:23:39;18.10;99.90
46730;DHT22;32476;50.002;11.854;2022-08-19T13:26:07;18.20;99.90
46730;DHT22;32476;50.002;11.854;2022-08-19T13:28:37;18.20;99.90
46730;DHT22;32476;50.002;11.854;2022-08-19T13:31:24;18.20;99.90
46730;DHT22;32476;50.002;11.854;2022-08-19T13:34:11;18.10;99.90
46730;DHT22;32476;50.002;11.854;2022-08-19T13:36:38;18.20;99.90
46730;DHT22;32476;50.002;11.854;2022-08-19T13:39:06;18.20;99.90
46730;DHT22;32476;50.002;11.854;2022-08-19T13:41:35;18.20;99.90
46730;DHT22;32476;50.002;11.854;2022-08-19T13:44:03;18.20;99.90
46730;DHT22;32476;50.002;11.854;2022-08-19T13:46:30;18.20;99.90
46730;DHT22;32476;50.002;11.854;2022-08-19T13:48:57;18.30;99.90
46730;DHT22;32476;50.002;11.854;2022-08-19T13:51:24;18.40;99.90
46730;DHT22;32476;50.002;11.854;2022-08-19T13:53:50;18.50;99.90
46730;DHT22;32476;50.002;11.854;2022-08-19T13:56:18;18.40;99.90
46730;DHT22;32476;50.002;11.854;2022-08-19T13:58:45;18.50;99.90
46730;DHT22;32476;50.002;11.854;2022-08-19T14:01:12;18.40;99.90
46730;DHT22;32476;50.002;11.854;2022-08-19T14:03:39;18.40;99.90
46730;DHT22;32476;50.002;11.854;2022-08-19T14:06:05;18.50;99.90
46730;DHT22;32476;50.002;11.854;2022-08-19T14:08:31;18.70;99.90
46730;DHT22;32476;50.002;11.854;2022-08-19T14:10:59;18.60;99.90
46730;DHT22;32476;50.002;11.854;2022-08-19T14:13:25;18.50;99.90
46730;DHT22;32476;50.002;11.854;2022-08-19T14:15:51;18.50;99.90
46730;DHT22;32476;50.002;11.854;2022-08-19T14:18:20;18.50;99.90
46730;DHT22;32476;50.002;11.854;2022-08-19T14:20:46;18.50;99.90
46730;DHT22;32476;50.002;11.854;2022-08-19T14:23:12;18.60;99.90
46730;DHT22;32476;50.002;11.854;2022-08-19T14:25:41;18.60;99.90
46730;DHT22;32476;50.002;11.854;2022-08-19T14:28:07;18.60;99.90
46730;DHT22;32476;50.002;11.854;2022-08-19T14:30:34;18.60;99.90
46730;DHT22;32476;50.002;11.854;2022-08-19T14:33:05;18.60;99.90
46730;DHT22;32476;50.002;11.854;2022-08-19T14:35:33;18.40;99.90
46730;DHT22;32476;50.002;11.854;2022-08-19T14:38:01;18.40;99.90
46730;DHT22;32476;50.002;11.854;2022-08-19T14:40:31;18.30;99.90
46730;DHT22;32476;50.002;11.854;2022-08-19T14:43:00;18.30;99.90
46730;DHT22;32476;50.002;11.854;2022-08-19T14:45:34;18.40;99.90
46730;DHT22;32476;50.002;11.854;2022-08-19T14:48:04;18.30;99.90
46730;DHT22;32476;50.002;11.854;2022-08-19T14:50:32;18.20;99.90
46730;DHT22;32476;50.002;11.854;2022-08-19T14:53:01;18.20;99.90
46730;DHT22;32476;50.002;11.854;2022-08-19T14:55:35;18.20;99.90
46730;DHT22;32476;50.002;11.854;2022-08-19T14:58:01;18.20;99.90
46730;DHT22;32476;50.002;11.854;2022-08-19T15:00:27;18.10;99.90
46730;DHT22;32476;50.002;11.854;2022-08-19T15:02:55;18.00;99.90
46730;DHT22;32476;50.002;11.854;2022-08-19T15:05:21;18.00;99.90
46730;DHT22;32476;50.002;11.854;2022-08-19T15:07:47;17.90;99.90
46730;DHT22;32476;50.002;11.854;2022-08-19T15:10:15;17.80;99.90
46730;DHT22;32476;50.002;11.854;2022-08-19T15:12:41;17.80;99.90
46730;DHT22;32476;50.002;11.854;2022-08-19T15:15:13;17.70;99.90
46730;DHT22;32476;50.002;11.854;2022-08-19T15:17:42;17.70;99.90
46730;DHT22;32476;50.002;11.854;2022-08-19T15:20:11;17.70;99.90
46730;DHT22;32476;50.002;11.854;2022-08-19T15:22:39;17.70;99.90
46730;DHT22;32476;50.002;11.854;2022-08-19T15:25:11;17.70;99.90
46730;DHT22;32476;50.002;11.854;2022-08-19T15:27:39;17.60;99.90
46730;DHT22;32476;50.002;11.854;2022-08-19T15:30:07;17.50;99.90
46730;DHT22;32476;50.002;11.854;2022-08-19T15:32:37;17.60;99.90
46730;DHT22;32476;50.002;11.854;2022-08-19T15:35:05;17.60;99.90
46730;DHT22;32476;50.002;11.854;2022-08-19T15:37:32;17.60;99.90
46730;DHT22;32476;50.002;11.854;2022-08-19T15:39:59;17.40;99.90
46730;DHT22;32476;50.002;11.854;2022-08-19T15:42:25;17.40;99.90